sensor_id;sensor_type;location;lat;lon;timestamp;P1;durP1;ratioP1;P2;durP2;ratioP2
12968;SDS011;6549;53.128;8.182;2022-09-14T00:00:15;5.22;;;2.67;;
12968;SDS011;6549;53.128;8.182;2022-09-14T00:03:16;2.55;;;2.13;;
12968;SDS011;6549;53.128;8.182;2022-09-14T00:06:17;4.40;;;2.25;;
12968;SDS011;6549;53.128;8.182;2022-09-14T00:09:21;4.20;;;1.98;;
12968;SDS011;6549;53.128;8.182;2022-09-14T00:12:22;6.53;;;3.45;;
12968;SDS011;6549;53.128;8.182;2022-09-14T00:15:23;6.00;;;3.00;;
12968;SDS011;6549;53.128;8.182;2022-09-14T00:18:24;6.40;;;3.20;;
12968;SDS011;6549;53.128;8.182;2022-09-14T00:21:24;6.90;;;3.42;;
12968;SDS011;6549;53.128;8.182;2022-09-14T00:24:26;5.38;;;2.58;;
12968;SDS011;6549;53.128;8.182;2022-09-14T00:27:29;3.60;;;2.40;;
12968;SDS011;6549;53.128;8.182;2022-09-14T00:30:30;7.05;;;3.65;;
12968;SDS011;6549;53.128;8.182;2022-09-14T00:33:30;7.85;;;3.78;;
12968;SDS011;6549;53.128;8.182;2022-09-14T00:36:31;5.53;;;3.05;;
12968;SDS011;6549;53.128;8.182;2022-09-14T00:39:32;5.28;;;3.00;;
12968;SDS011;6549;53.128;8.182;2022-09-14T00:42:32;6.03;;;3.88;;
12968;SDS011;6549;53.128;8.182;2022-09-14T00:45:33;8.02;;;3.92;;
12968;SDS011;6549;53.128;8.182;2022-09-14T00:48:33;9.35;;;3.92;;
12968;SDS011;6549;53.128;8.182;2022-09-14T00:51:34;5.25;;;3.60;;
12968;SDS011;6549;53.128;8.182;2022-09-14T00:54:52;5.22;;;3.65;;
12968;SDS011;6549;53.128;8.182;2022-09-14T00:57:55;3.75;;;2.80;;
12968;SDS011;6549;53.128;8.182;2022-09-14T01:00:55;7.95;;;3.97;;
12968;SDS011;6549;53.128;8.182;2022-09-14T01:03:57;4.20;;;3.20;;
12968;SDS011;6549;53.128;8.182;2022-09-14T01:07:06;6.97;;;3.75;;
12968;SDS011;6549;53.128;8.182;2022-09-14T01:17:11;5.60;;;4.03;;
12968;SDS011;6549;53.128;8.182;2022-09-14T01:23:48;5.03;;;3.00;;
12968;SDS011;6549;53.128;8.182;2022-09-14T01:30:02;5.55;;;2.85;;
12968;SDS011;6549;53.128;8.182;2022-09-14T01:33:10;5.95;;;3.30;;
12968;SDS011;6549;53.128;8.182;2022-09-14T01:36:18;5.82;;;2.97;;
12968;SDS011;6549;53.128;8.182;2022-09-14T01:39:20;5.20;;;3.58;;
12968;SDS011;6549;53.128;8.182;2022-09-14T01:42:21;3.83;;;2.63;;
12968;SDS011;6549;53.128;8.182;2022-09-14T01:45:25;4.63;;;2.67;;
12968;SDS011;6549;53.128;8.182;2022-09-14T01:48:33;3.25;;;2.63;;
12968;SDS011;6549;53.128;8.182;2022-09-14T01:51:38;2.95;;;2.50;;
12968;SDS011;6549;53.128;8.182;2022-09-14T01:54:51;4.50;;;2.53;;
12968;SDS011;6549;53.128;8.182;2022-09-14T01:57:58;4.22;;;2.63;;
12968;SDS011;6549;53.128;8.182;2022-09-14T02:01:06;5.90;;;4.32;;
12968;SDS011;6549;53.128;8.182;2022-09-14T02:04:12;5.30;;;3.30;;
12968;SDS011;6549;53.128;8.182;2022-09-14T02:07:15;4.65;;;3.08;;
12968;SDS011;6549;53.128;8.182;2022-09-14T02:10:17;5.13;;;3.00;;
12968;SDS011;6549;53.128;8.182;2022-09-14T02:13:18;4.75;;;3.20;;
12968;SDS011;6549;53.128;8.182;2022-09-14T02:16:18;4.57;;;2.78;;
12968;SDS011;6549;53.128;8.182;2022-09-14T02:22:27;8.23;;;3.83;;
12968;SDS011;6549;53.128;8.182;2022-09-14T02:25:28;4.53;;;3.10;;
12968;SDS011;6549;53.128;8.182;2022-09-14T02:28:28;8.13;;;4.68;;
12968;SDS011;6549;53.128;8.182;2022-09-14T02:31:32;9.05;;;5.63;;
12968;SDS011;6549;53.128;8.182;2022-09-14T02:34:55;6.93;;;5.10;;
12968;SDS011;6549;53.128;8.182;2022-09-14T02:38:06;6.75;;;4.47;;
12968;SDS011;6549;53.128;8.182;2022-09-14T02:41:17;6.25;;;4.00;;
12968;SDS011;6549;53.128;8.182;2022-09-14T02:44:34;7.28;;;4.47;;
12968;SDS011;6549;53.128;8.182;2022-09-14T02:48:03;6.07;;;4.60;;
12968;SDS011;6549;53.128;8.182;2022-09-14T02:58:00;5.60;;;4.53;;
12968;SDS011;6549;53.128;8.182;2022-09-14T03:01:04;7.03;;;4.70;;
12968;SDS011;6549;53.128;8.182;2022-09-14T03:04:05;9.43;;;6.10;;
12968;SDS011;6549;53.128;8.182;2022-09-14T03:07:05;8.48;;;5.57;;
12968;SDS011;6549;53.128;8.182;2022-09-14T03:10:06;7.13;;;4.90;;
12968;SDS011;6549;53.128;8.182;2022-09-14T03:13:06;9.80;;;5.40;;
12968;SDS011;6549;53.128;8.182;2022-09-14T03:16:08;6.18;;;4.43;;
12968;SDS011;6549;53.128;8.182;2022-09-14T03:19:09;5.03;;;3.65;;
12968;SDS011;6549;53.128;8.182;2022-09-14T03:22:11;12.07;;;6.03;;
12968;SDS011;6549;53.128;8.182;2022-09-14T03:25:11;5.60;;;4.65;;
12968;SDS011;6549;53.128;8.182;2022-09-14T03:28:13;10.05;;;6.07;;
12968;SDS011;6549;53.128;8.182;2022-09-14T03:31:13;7.45;;;4.80;;
12968;SDS011;6549;53.128;8.182;2022-09-14T03:34:13;6.90;;;5.00;;
12968;SDS011;6549;53.128;8.182;2022-09-14T03:37:14;7.60;;;4.60;;
12968;SDS011;6549;53.128;8.182;2022-09-14T03:40:14;5.30;;;4.10;;
12968;SDS011;6549;53.128;8.182;2022-09-14T03:43:16;7.47;;;6.30;;
12968;SDS011;6549;53.128;8.182;2022-09-14T03:46:17;7.10;;;5.88;;
12968;SDS011;6549;53.128;8.182;2022-09-14T03:49:21;9.10;;;5.32;;
12968;SDS011;6549;53.128;8.182;2022-09-14T03:52:22;6.95;;;4.28;;
12968;SDS011;6549;53.128;8.182;2022-09-14T03:55:22;6.68;;;4.10;;
12968;SDS011;6549;53.128;8.182;2022-09-14T03:58:23;8.75;;;5.43;;
12968;SDS011;6549;53.128;8.182;2022-09-14T04:01:23;6.72;;;4.93;;
12968;SDS011;6549;53.128;8.182;2022-09-14T04:04:24;5.03;;;4.03;;
12968;SDS011;6549;53.128;8.182;2022-09-14T04:07:24;6.68;;;3.80;;
12968;SDS011;6549;53.128;8.182;2022-09-14T04:10:25;9.27;;;4.82;;
12968;SDS011;6549;53.128;8.182;2022-09-14T04:13:25;7.32;;;5.20;;
12968;SDS011;6549;53.128;8.182;2022-09-14T04:16:26;9.40;;;6.32;;
12968;SDS011;6549;53.128;8.182;2022-09-14T04:19:27;8.73;;;4.90;;
12968;SDS011;6549;53.128;8.182;2022-09-14T04:22:27;13.18;;;6.85;;
12968;SDS011;6549;53.128;8.182;2022-09-14T04:25:28;12.40;;;6.60;;
12968;SDS011;6549;53.128;8.182;2022-09-14T04:28:28;8.77;;;5.95;;
12968;SDS011;6549;53.128;8.182;2022-09-14T04:31:29;8.25;;;5.93;;
12968;SDS011;6549;53.128;8.182;2022-09-14T04:34:29;9.32;;;5.97;;
12968;SDS011;6549;53.128;8.182;2022-09-14T04:37:30;10.13;;;5.80;;
12968;SDS011;6549;53.128;8.182;2022-09-14T04:40:31;9.65;;;6.25;;
12968;SDS011;6549;53.128;8.182;2022-09-14T04:43:32;7.63;;;5.13;;
12968;SDS011;6549;53.128;8.182;2022-09-14T04:46:33;10.40;;;6.40;;
12968;SDS011;6549;53.128;8.182;2022-09-14T04:49:38;8.15;;;5.13;;
12968;SDS011;6549;53.128;8.182;2022-09-14T04:52:38;8.32;;;6.10;;
12968;SDS011;6549;53.128;8.182;2022-09-14T04:55:39;10.65;;;5.38;;
12968;SDS011;6549;53.128;8.182;2022-09-14T04:58:43;6.85;;;5.10;;
12968;SDS011;6549;53.128;8.182;2022-09-14T05:01:46;7.28;;;5.03;;
12968;SDS011;6549;53.128;8.182;2022-09-14T05:04:48;8.98;;;6.13;;
12968;SDS011;6549;53.128;8.182;2022-09-14T05:07:48;6.50;;;4.22;;
12968;SDS011;6549;53.128;8.182;2022-09-14T05:10:48;7.05;;;4.63;;
12968;SDS011;6549;53.128;8.182;2022-09-14T05:13:49;7.00;;;4.85;;
12968;SDS011;6549;53.128;8.182;2022-09-14T05:16:49;6.07;;;4.00;;
12968;SDS011;6549;53.128;8.182;2022-09-14T05:19:50;6.75;;;4.68;;
12968;SDS011;6549;53.128;8.182;2022-09-14T05:22:50;6.07;;;4.10;;
12968;SDS011;6549;53.128;8.182;2022-09-14T05:25:51;4.75;;;4.03;;
12968;SDS011;6549;53.128;8.182;2022-09-14T05:28:52;5.68;;;3.85;;
12968;SDS011;6549;53.128;8.182;2022-09-14T05:31:54;6.03;;;4.38;;
12968;SDS011;6549;53.128;8.182;2022-09-14T05:34:54;7.97;;;5.65;;
12968;SDS011;6549;53.128;8.182;2022-09-14T05:37:55;7.60;;;5.32;;
12968;SDS011;6549;53.128;8.182;2022-09-14T05:40:55;8.32;;;5.78;;
12968;SDS011;6549;53.128;8.182;2022-09-14T05:43:57;14.07;;;7.10;;
12968;SDS011;6549;53.128;8.182;2022-09-14T05:46:58;7.18;;;4.80;;
12968;SDS011;6549;53.128;8.182;2022-09-14T05:49:58;10.05;;;5.50;;
12968;SDS011;6549;53.128;8.182;2022-09-14T05:52:59;7.13;;;4.75;;
12968;SDS011;6549;53.128;8.182;2022-09-14T05:56:00;7.65;;;5.32;;
12968;SDS011;6549;53.128;8.182;2022-09-14T05:59:05;10.07;;;5.78;;
12968;SDS011;6549;53.128;8.182;2022-09-14T06:02:06;10.32;;;6.38;;
12968;SDS011;6549;53.128;8.182;2022-09-14T06:05:06;7.40;;;5.70;;
12968;SDS011;6549;53.128;8.182;2022-09-14T06:08:06;7.18;;;4.55;;
12968;SDS011;6549;53.128;8.182;2022-09-14T06:11:13;7.85;;;5.28;;
12968;SDS011;6549;53.128;8.182;2022-09-14T06:14:15;6.55;;;5.20;;
12968;SDS011;6549;53.128;8.182;2022-09-14T06:17:18;9.30;;;4.70;;
12968;SDS011;6549;53.128;8.182;2022-09-14T06:20:19;8.95;;;5.90;;
12968;SDS011;6549;53.128;8.182;2022-09-14T06:23:19;10.35;;;6.32;;
12968;SDS011;6549;53.128;8.182;2022-09-14T06:26:19;10.13;;;6.32;;
12968;SDS011;6549;53.128;8.182;2022-09-14T06:29:20;10.63;;;5.93;;
12968;SDS011;6549;53.128;8.182;2022-09-14T06:32:20;10.75;;;6.00;;
12968;SDS011;6549;53.128;8.182;2022-09-14T06:35:22;8.70;;;5.73;;
12968;SDS011;6549;53.128;8.182;2022-09-14T06:38:22;8.48;;;5.85;;
12968;SDS011;6549;53.128;8.182;2022-09-14T06:41:24;12.60;;;7.90;;
12968;SDS011;6549;53.128;8.182;2022-09-14T06:44:27;9.25;;;6.93;;
12968;SDS011;6549;53.128;8.182;2022-09-14T06:47:31;11.50;;;8.20;;
12968;SDS011;6549;53.128;8.182;2022-09-14T06:50:32;11.38;;;8.35;;
12968;SDS011;6549;53.128;8.182;2022-09-14T06:53:32;15.60;;;10.23;;
12968;SDS011;6549;53.128;8.182;2022-09-14T06:56:34;15.32;;;9.45;;
12968;SDS011;6549;53.128;8.182;2022-09-14T06:59:35;10.30;;;7.53;;
12968;SDS011;6549;53.128;8.182;2022-09-14T07:02:35;19.13;;;10.57;;
12968;SDS011;6549;53.128;8.182;2022-09-14T07:05:36;12.20;;;8.77;;
12968;SDS011;6549;53.128;8.182;2022-09-14T07:08:36;14.68;;;8.80;;
12968;SDS011;6549;53.128;8.182;2022-09-14T07:11:41;9.48;;;7.00;;
12968;SDS011;6549;53.128;8.182;2022-09-14T07:14:42;11.50;;;7.85;;
12968;SDS011;6549;53.128;8.182;2022-09-14T07:17:45;13.25;;;8.05;;
12968;SDS011;6549;53.128;8.182;2022-09-14T07:20:46;14.57;;;8.93;;
12968;SDS011;6549;53.128;8.182;2022-09-14T07:23:47;13.60;;;9.18;;
12968;SDS011;6549;53.128;8.182;2022-09-14T07:26:48;14.23;;;8.65;;
12968;SDS011;6549;53.128;8.182;2022-09-14T07:29:48;14.15;;;8.93;;
12968;SDS011;6549;53.128;8.182;2022-09-14T07:32:49;10.52;;;8.30;;
12968;SDS011;6549;53.128;8.182;2022-09-14T07:35:49;11.88;;;7.78;;
12968;SDS011;6549;53.128;8.182;2022-09-14T07:38:51;13.25;;;7.65;;
12968;SDS011;6549;53.128;8.182;2022-09-14T07:41:52;12.85;;;7.30;;
12968;SDS011;6549;53.128;8.182;2022-09-14T07:44:52;12.23;;;7.05;;
12968;SDS011;6549;53.128;8.182;2022-09-14T07:47:52;9.30;;;6.20;;
12968;SDS011;6549;53.128;8.182;2022-09-14T07:50:58;13.60;;;6.43;;
12968;SDS011;6549;53.128;8.182;2022-09-14T07:54:03;8.77;;;5.35;;
12968;SDS011;6549;53.128;8.182;2022-09-14T07:57:05;10.68;;;5.32;;
12968;SDS011;6549;53.128;8.182;2022-09-14T08:00:05;6.07;;;3.63;;
12968;SDS011;6549;53.128;8.182;2022-09-14T08:03:07;6.28;;;3.83;;
12968;SDS011;6549;53.128;8.182;2022-09-14T08:06:09;6.45;;;3.72;;
12968;SDS011;6549;53.128;8.182;2022-09-14T08:09:12;8.23;;;3.90;;
12968;SDS011;6549;53.128;8.182;2022-09-14T08:12:13;6.53;;;3.20;;
12968;SDS011;6549;53.128;8.182;2022-09-14T08:15:15;7.15;;;3.70;;
12968;SDS011;6549;53.128;8.182;2022-09-14T08:18:15;8.30;;;3.55;;
12968;SDS011;6549;53.128;8.182;2022-09-14T08:21:15;5.50;;;2.72;;
12968;SDS011;6549;53.128;8.182;2022-09-14T08:24:17;4.72;;;3.20;;
12968;SDS011;6549;53.128;8.182;2022-09-14T08:27:19;8.00;;;3.30;;
12968;SDS011;6549;53.128;8.182;2022-09-14T08:30:20;4.38;;;2.47;;
12968;SDS011;6549;53.128;8.182;2022-09-14T08:33:20;4.55;;;2.45;;
12968;SDS011;6549;53.128;8.182;2022-09-14T08:36:21;8.57;;;3.35;;
12968;SDS011;6549;53.128;8.182;2022-09-14T08:39:22;4.10;;;2.27;;
12968;SDS011;6549;53.128;8.182;2022-09-14T08:42:22;6.38;;;2.85;;
12968;SDS011;6549;53.128;8.182;2022-09-14T08:45:24;5.82;;;2.55;;
12968;SDS011;6549;53.128;8.182;2022-09-14T08:48:26;4.57;;;2.00;;
12968;SDS011;6549;53.128;8.182;2022-09-14T08:51:32;6.88;;;2.40;;
12968;SDS011;6549;53.128;8.182;2022-09-14T08:54:32;4.80;;;1.70;;
12968;SDS011;6549;53.128;8.182;2022-09-14T08:57:54;4.55;;;1.35;;
12968;SDS011;6549;53.128;8.182;2022-09-14T09:01:08;7.25;;;1.40;;
12968;SDS011;6549;53.128;8.182;2022-09-14T09:07:41;6.70;;;1.42;;
12968;SDS011;6549;53.128;8.182;2022-09-14T09:10:52;5.28;;;1.30;;
12968;SDS011;6549;53.128;8.182;2022-09-14T09:13:53;6.80;;;1.52;;
12968;SDS011;6549;53.128;8.182;2022-09-14T09:16:56;3.78;;;1.20;;
12968;SDS011;6549;53.128;8.182;2022-09-14T09:23:23;6.50;;;1.20;;
12968;SDS011;6549;53.128;8.182;2022-09-14T09:26:28;8.43;;;1.40;;
12968;SDS011;6549;53.128;8.182;2022-09-14T09:29:29;6.63;;;1.40;;
12968;SDS011;6549;53.128;8.182;2022-09-14T09:32:38;5.38;;;1.27;;
12968;SDS011;6549;53.128;8.182;2022-09-14T09:35:39;7.28;;;1.17;;
12968;SDS011;6549;53.128;8.182;2022-09-14T09:38:39;6.10;;;1.38;;
12968;SDS011;6549;53.128;8.182;2022-09-14T09:45:00;3.83;;;1.48;;
12968;SDS011;6549;53.128;8.182;2022-09-14T09:48:07;4.90;;;1.25;;
12968;SDS011;6549;53.128;8.182;2022-09-14T09:51:13;5.88;;;1.55;;
12968;SDS011;6549;53.128;8.182;2022-09-14T10:00:23;6.05;;;1.63;;
12968;SDS011;6549;53.128;8.182;2022-09-14T10:03:25;4.22;;;1.38;;
12968;SDS011;6549;53.128;8.182;2022-09-14T10:06:31;7.70;;;1.73;;
12968;SDS011;6549;53.128;8.182;2022-09-14T10:09:41;4.03;;;1.35;;
12968;SDS011;6549;53.128;8.182;2022-09-14T10:12:45;7.18;;;1.50;;
12968;SDS011;6549;53.128;8.182;2022-09-14T10:15:48;6.63;;;1.42;;
12968;SDS011;6549;53.128;8.182;2022-09-14T10:18:49;8.02;;;1.20;;
12968;SDS011;6549;53.128;8.182;2022-09-14T10:22:52;3.65;;;1.17;;
12968;SDS011;6549;53.128;8.182;2022-09-14T10:25:34;5.32;;;1.33;;
12968;SDS011;6549;53.128;8.182;2022-09-14T10:28:35;5.70;;;1.10;;
12968;SDS011;6549;53.128;8.182;2022-09-14T10:31:36;3.72;;;0.90;;
12968;SDS011;6549;53.128;8.182;2022-09-14T10:34:39;8.40;;;1.13;;
12968;SDS011;6549;53.128;8.182;2022-09-14T10:37:45;4.70;;;1.30;;
12968;SDS011;6549;53.128;8.182;2022-09-14T10:41:00;5.40;;;1.17;;
12968;SDS011;6549;53.128;8.182;2022-09-14T10:51:13;6.65;;;1.15;;
12968;SDS011;6549;53.128;8.182;2022-09-14T10:54:41;4.32;;;1.10;;
12968;SDS011;6549;53.128;8.182;2022-09-14T11:01:00;7.82;;;1.33;;
12968;SDS011;6549;53.128;8.182;2022-09-14T11:04:18;7.22;;;1.30;;
12968;SDS011;6549;53.128;8.182;2022-09-14T11:20:25;4.00;;;1.20;;
12968;SDS011;6549;53.128;8.182;2022-09-14T11:23:38;4.57;;;1.23;;
12968;SDS011;6549;53.128;8.182;2022-09-14T11:30:22;5.13;;;1.10;;
12968;SDS011;6549;53.128;8.182;2022-09-14T11:33:43;4.38;;;1.35;;
12968;SDS011;6549;53.128;8.182;2022-09-14T11:36:49;6.43;;;1.30;;
12968;SDS011;6549;53.128;8.182;2022-09-14T11:40:13;4.05;;;1.35;;
12968;SDS011;6549;53.128;8.182;2022-09-14T11:43:24;3.78;;;1.05;;
12968;SDS011;6549;53.128;8.182;2022-09-14T11:46:31;5.68;;;1.30;;
12968;SDS011;6549;53.128;8.182;2022-09-14T11:53:00;3.95;;;1.10;;
12968;SDS011;6549;53.128;8.182;2022-09-14T11:56:19;2.45;;;1.15;;
12968;SDS011;6549;53.128;8.182;2022-09-14T12:05:42;7.00;;;1.20;;
12968;SDS011;6549;53.128;8.182;2022-09-14T12:08:43;4.22;;;1.25;;
12968;SDS011;6549;53.128;8.182;2022-09-14T12:11:44;5.40;;;1.45;;
12968;SDS011;6549;53.128;8.182;2022-09-14T12:14:47;2.55;;;0.90;;
12968;SDS011;6549;53.128;8.182;2022-09-14T12:17:48;4.63;;;1.15;;
12968;SDS011;6549;53.128;8.182;2022-09-14T12:21:03;6.63;;;1.33;;
12968;SDS011;6549;53.128;8.182;2022-09-14T12:24:19;5.53;;;1.30;;
12968;SDS011;6549;53.128;8.182;2022-09-14T12:27:21;3.53;;;1.10;;
12968;SDS011;6549;53.128;8.182;2022-09-14T12:30:33;5.00;;;1.10;;
12968;SDS011;6549;53.128;8.182;2022-09-14T12:33:40;2.90;;;1.42;;
12968;SDS011;6549;53.128;8.182;2022-09-14T12:40:10;3.83;;;1.17;;
12968;SDS011;6549;53.128;8.182;2022-09-14T12:46:32;2.95;;;1.10;;
12968;SDS011;6549;53.128;8.182;2022-09-14T12:49:37;3.42;;;1.20;;
12968;SDS011;6549;53.128;8.182;2022-09-14T12:55:55;5.75;;;1.40;;
12968;SDS011;6549;53.128;8.182;2022-09-14T12:59:12;5.55;;;1.27;;
12968;SDS011;6549;53.128;8.182;2022-09-14T13:05:56;4.65;;;1.30;;
12968;SDS011;6549;53.128;8.182;2022-09-14T13:08:57;3.47;;;1.30;;
12968;SDS011;6549;53.128;8.182;2022-09-14T13:12:02;6.40;;;1.40;;
12968;SDS011;6549;53.128;8.182;2022-09-14T13:15:05;5.57;;;1.48;;
12968;SDS011;6549;53.128;8.182;2022-09-14T13:21:21;7.53;;;1.33;;
12968;SDS011;6549;53.128;8.182;2022-09-14T13:24:34;5.25;;;1.40;;
12968;SDS011;6549;53.128;8.182;2022-09-14T13:27:48;4.40;;;1.20;;
12968;SDS011;6549;53.128;8.182;2022-09-14T13:30:58;2.70;;;0.85;;
12968;SDS011;6549;53.128;8.182;2022-09-14T13:34:00;4.53;;;1.17;;
12968;SDS011;6549;53.128;8.182;2022-09-14T13:37:02;8.10;;;1.42;;
12968;SDS011;6549;53.128;8.182;2022-09-14T13:40:03;6.63;;;1.40;;
12968;SDS011;6549;53.128;8.182;2022-09-14T13:43:05;4.82;;;1.30;;
12968;SDS011;6549;53.128;8.182;2022-09-14T13:46:05;5.35;;;1.73;;
12968;SDS011;6549;53.128;8.182;2022-09-14T13:49:08;3.75;;;1.25;;
12968;SDS011;6549;53.128;8.182;2022-09-14T13:52:17;6.97;;;1.50;;
12968;SDS011;6549;53.128;8.182;2022-09-14T13:55:25;6.75;;;1.40;;
12968;SDS011;6549;53.128;8.182;2022-09-14T13:58:41;4.72;;;1.23;;
12968;SDS011;6549;53.128;8.182;2022-09-14T14:04:46;4.72;;;1.30;;
12968;SDS011;6549;53.128;8.182;2022-09-14T14:07:47;5.72;;;1.35;;
12968;SDS011;6549;53.128;8.182;2022-09-14T14:10:47;8.25;;;1.52;;
12968;SDS011;6549;53.128;8.182;2022-09-14T14:13:50;7.88;;;1.42;;
12968;SDS011;6549;53.128;8.182;2022-09-14T14:23:25;5.55;;;1.40;;
12968;SDS011;6549;53.128;8.182;2022-09-14T14:26:25;8.43;;;1.33;;
12968;SDS011;6549;53.128;8.182;2022-09-14T14:29:26;6.85;;;1.42;;
12968;SDS011;6549;53.128;8.182;2022-09-14T14:32:27;5.80;;;1.23;;
12968;SDS011;6549;53.128;8.182;2022-09-14T14:35:29;5.83;;;1.40;;
12968;SDS011;6549;53.128;8.182;2022-09-14T14:38:30;5.93;;;1.70;;
12968;SDS011;6549;53.128;8.182;2022-09-14T14:41:30;5.45;;;1.40;;
12968;SDS011;6549;53.128;8.182;2022-09-14T14:44:30;4.90;;;1.20;;
12968;SDS011;6549;53.128;8.182;2022-09-14T14:47:32;4.88;;;1.30;;
12968;SDS011;6549;53.128;8.182;2022-09-14T14:50:32;7.43;;;1.50;;
12968;SDS011;6549;53.128;8.182;2022-09-14T14:56:35;5.30;;;1.60;;
12968;SDS011;6549;53.128;8.182;2022-09-14T14:59:37;7.00;;;1.88;;
12968;SDS011;6549;53.128;8.182;2022-09-14T15:02:38;4.33;;;1.33;;
12968;SDS011;6549;53.128;8.182;2022-09-14T15:05:39;3.90;;;1.30;;
12968;SDS011;6549;53.128;8.182;2022-09-14T15:08:41;6.65;;;1.48;;
12968;SDS011;6549;53.128;8.182;2022-09-14T15:11:41;9.00;;;1.75;;
12968;SDS011;6549;53.128;8.182;2022-09-14T15:14:42;5.13;;;1.40;;
12968;SDS011;6549;53.128;8.182;2022-09-14T15:17:42;7.85;;;1.90;;
12968;SDS011;6549;53.128;8.182;2022-09-14T15:20:43;6.63;;;1.63;;
12968;SDS011;6549;53.128;8.182;2022-09-14T15:23:43;6.50;;;1.45;;
12968;SDS011;6549;53.128;8.182;2022-09-14T15:26:43;6.50;;;1.60;;
12968;SDS011;6549;53.128;8.182;2022-09-14T15:29:44;7.53;;;1.70;;
12968;SDS011;6549;53.128;8.182;2022-09-14T15:32:44;5.35;;;1.42;;
12968;SDS011;6549;53.128;8.182;2022-09-14T15:35:44;4.20;;;1.38;;
12968;SDS011;6549;53.128;8.182;2022-09-14T15:38:45;4.20;;;1.42;;
12968;SDS011;6549;53.128;8.182;2022-09-14T15:41:45;6.32;;;1.60;;
12968;SDS011;6549;53.128;8.182;2022-09-14T15:44:46;6.13;;;1.52;;
12968;SDS011;6549;53.128;8.182;2022-09-14T15:47:46;8.07;;;1.77;;
12968;SDS011;6549;53.128;8.182;2022-09-14T15:50:47;8.27;;;1.60;;
12968;SDS011;6549;53.128;8.182;2022-09-14T15:53:47;7.90;;;1.40;;
12968;SDS011;6549;53.128;8.182;2022-09-14T15:56:49;3.95;;;1.40;;
12968;SDS011;6549;53.128;8.182;2022-09-14T15:59:54;7.30;;;2.05;;
12968;SDS011;6549;53.128;8.182;2022-09-14T16:02:54;7.00;;;1.73;;
12968;SDS011;6549;53.128;8.182;2022-09-14T16:05:54;4.07;;;1.40;;
12968;SDS011;6549;53.128;8.182;2022-09-14T16:08:59;6.72;;;1.80;;
12968;SDS011;6549;53.128;8.182;2022-09-14T16:12:00;5.90;;;1.42;;
12968;SDS011;6549;53.128;8.182;2022-09-14T16:15:01;6.13;;;1.50;;
12968;SDS011;6549;53.128;8.182;2022-09-14T16:18:01;7.13;;;1.40;;
12968;SDS011;6549;53.128;8.182;2022-09-14T16:21:11;5.45;;;1.30;;
12968;SDS011;6549;53.128;8.182;2022-09-14T16:24:16;3.75;;;1.15;;
12968;SDS011;6549;53.128;8.182;2022-09-14T16:30:18;4.53;;;1.37;;
12968;SDS011;6549;53.128;8.182;2022-09-14T16:33:18;3.88;;;1.00;;
12968;SDS011;6549;53.128;8.182;2022-09-14T16:36:21;2.78;;;1.20;;
12968;SDS011;6549;53.128;8.182;2022-09-14T16:39:25;3.75;;;1.05;;
12968;SDS011;6549;53.128;8.182;2022-09-14T16:42:28;5.65;;;1.40;;
12968;SDS011;6549;53.128;8.182;2022-09-14T16:45:28;4.90;;;1.42;;
12968;SDS011;6549;53.128;8.182;2022-09-14T16:48:29;3.63;;;1.25;;
12968;SDS011;6549;53.128;8.182;2022-09-14T16:51:30;4.35;;;1.30;;
12968;SDS011;6549;53.128;8.182;2022-09-14T16:54:31;2.67;;;1.10;;
12968;SDS011;6549;53.128;8.182;2022-09-14T16:57:32;3.95;;;1.10;;
12968;SDS011;6549;53.128;8.182;2022-09-14T17:00:33;4.63;;;1.08;;
12968;SDS011;6549;53.128;8.182;2022-09-14T17:03:34;2.15;;;1.13;;
12968;SDS011;6549;53.128;8.182;2022-09-14T17:06:37;2.55;;;1.20;;
12968;SDS011;6549;53.128;8.182;2022-09-14T17:09:38;3.83;;;1.15;;
12968;SDS011;6549;53.128;8.182;2022-09-14T17:12:40;3.20;;;1.27;;
12968;SDS011;6549;53.128;8.182;2022-09-14T17:15:40;2.03;;;1.00;;
12968;SDS011;6549;53.128;8.182;2022-09-14T17:18:41;3.22;;;1.20;;
12968;SDS011;6549;53.128;8.182;2022-09-14T17:21:43;3.45;;;1.30;;
12968;SDS011;6549;53.128;8.182;2022-09-14T17:24:44;5.60;;;1.47;;
12968;SDS011;6549;53.128;8.182;2022-09-14T17:27:45;2.92;;;1.25;;
12968;SDS011;6549;53.128;8.182;2022-09-14T17:30:45;5.10;;;1.20;;
12968;SDS011;6549;53.128;8.182;2022-09-14T17:33:45;4.05;;;1.10;;
12968;SDS011;6549;53.128;8.182;2022-09-14T17:36:46;2.70;;;1.02;;
12968;SDS011;6549;53.128;8.182;2022-09-14T17:39:46;2.72;;;1.20;;
12968;SDS011;6549;53.128;8.182;2022-09-14T17:42:47;4.28;;;1.50;;
12968;SDS011;6549;53.128;8.182;2022-09-14T17:45:51;3.60;;;1.40;;
12968;SDS011;6549;53.128;8.182;2022-09-14T17:48:56;4.13;;;1.58;;
12968;SDS011;6549;53.128;8.182;2022-09-14T17:55:00;2.63;;;1.20;;
12968;SDS011;6549;53.128;8.182;2022-09-14T17:58:00;2.85;;;1.30;;
12968;SDS011;6549;53.128;8.182;2022-09-14T18:01:08;3.25;;;1.40;;
12968;SDS011;6549;53.128;8.182;2022-09-14T18:04:11;3.65;;;1.30;;
12968;SDS011;6549;53.128;8.182;2022-09-14T18:07:13;2.50;;;1.05;;
12968;SDS011;6549;53.128;8.182;2022-09-14T18:10:14;2.67;;;1.20;;
12968;SDS011;6549;53.128;8.182;2022-09-14T18:16:17;2.53;;;1.10;;
12968;SDS011;6549;53.128;8.182;2022-09-14T18:19:18;2.47;;;1.10;;
12968;SDS011;6549;53.128;8.182;2022-09-14T18:22:19;3.38;;;1.25;;
12968;SDS011;6549;53.128;8.182;2022-09-14T18:25:19;1.40;;;0.82;;
12968;SDS011;6549;53.128;8.182;2022-09-14T18:28:20;3.42;;;1.23;;
12968;SDS011;6549;53.128;8.182;2022-09-14T18:31:21;2.45;;;1.20;;
12968;SDS011;6549;53.128;8.182;2022-09-14T18:34:23;2.83;;;1.10;;
12968;SDS011;6549;53.128;8.182;2022-09-14T18:37:24;2.42;;;1.15;;
12968;SDS011;6549;53.128;8.182;2022-09-14T18:40:24;3.13;;;1.10;;
12968;SDS011;6549;53.128;8.182;2022-09-14T18:43:25;4.00;;;1.20;;
12968;SDS011;6549;53.128;8.182;2022-09-14T18:46:25;3.78;;;1.50;;
12968;SDS011;6549;53.128;8.182;2022-09-14T18:49:26;1.88;;;1.17;;
12968;SDS011;6549;53.128;8.182;2022-09-14T18:52:26;3.03;;;1.20;;
12968;SDS011;6549;53.128;8.182;2022-09-14T18:55:27;4.00;;;1.45;;
12968;SDS011;6549;53.128;8.182;2022-09-14T18:58:27;2.88;;;1.33;;
12968;SDS011;6549;53.128;8.182;2022-09-14T19:01:28;1.98;;;1.27;;
12968;SDS011;6549;53.128;8.182;2022-09-14T19:04:28;5.25;;;1.55;;
12968;SDS011;6549;53.128;8.182;2022-09-14T19:07:29;3.10;;;1.30;;
12968;SDS011;6549;53.128;8.182;2022-09-14T19:10:30;2.17;;;1.27;;
12968;SDS011;6549;53.128;8.182;2022-09-14T19:13:31;3.17;;;1.10;;
12968;SDS011;6549;53.128;8.182;2022-09-14T19:16:31;3.00;;;1.30;;
12968;SDS011;6549;53.128;8.182;2022-09-14T19:19:32;4.05;;;1.40;;
12968;SDS011;6549;53.128;8.182;2022-09-14T19:22:33;3.45;;;1.30;;
12968;SDS011;6549;53.128;8.182;2022-09-14T19:25:37;3.28;;;1.30;;
12968;SDS011;6549;53.128;8.182;2022-09-14T19:28:38;1.27;;;1.00;;
12968;SDS011;6549;53.128;8.182;2022-09-14T19:31:39;2.22;;;1.30;;
12968;SDS011;6549;53.128;8.182;2022-09-14T19:34:39;1.83;;;1.13;;
12968;SDS011;6549;53.128;8.182;2022-09-14T19:37:39;1.23;;;1.00;;
12968;SDS011;6549;53.128;8.182;2022-09-14T19:40:48;2.10;;;1.17;;
12968;SDS011;6549;53.128;8.182;2022-09-14T19:43:50;1.70;;;1.20;;
12968;SDS011;6549;53.128;8.182;2022-09-14T19:46:51;1.75;;;1.08;;
12968;SDS011;6549;53.128;8.182;2022-09-14T19:49:51;1.90;;;1.05;;
12968;SDS011;6549;53.128;8.182;2022-09-14T19:52:52;2.63;;;1.50;;
12968;SDS011;6549;53.128;8.182;2022-09-14T19:55:52;1.33;;;1.02;;
12968;SDS011;6549;53.128;8.182;2022-09-14T19:58:54;2.47;;;1.30;;
12968;SDS011;6549;53.128;8.182;2022-09-14T20:01:56;2.50;;;1.30;;
12968;SDS011;6549;53.128;8.182;2022-09-14T20:04:56;2.33;;;1.17;;
12968;SDS011;6549;53.128;8.182;2022-09-14T20:07:56;1.15;;;1.00;;
12968;SDS011;6549;53.128;8.182;2022-09-14T20:11:03;1.65;;;1.20;;
12968;SDS011;6549;53.128;8.182;2022-09-14T20:14:06;1.70;;;1.10;;
12968;SDS011;6549;53.128;8.182;2022-09-14T20:17:09;1.48;;;1.00;;
12968;SDS011;6549;53.128;8.182;2022-09-14T20:20:09;3.92;;;1.40;;
12968;SDS011;6549;53.128;8.182;2022-09-14T20:23:10;2.85;;;1.40;;
12968;SDS011;6549;53.128;8.182;2022-09-14T20:26:11;3.20;;;1.40;;
12968;SDS011;6549;53.128;8.182;2022-09-14T20:29:13;3.28;;;1.30;;
12968;SDS011;6549;53.128;8.182;2022-09-14T20:32:14;1.48;;;1.20;;